sensor_id;sensor_type;location;lat;lon;timestamp;temperature;humidity
14031;DHT22;7090;49.436;8.490;2023-03-26T00:00:43;8.70;99.90
14031;DHT22;7090;49.436;8.490;2023-03-26T00:03:10;8.70;99.90
14031;DHT22;7090;49.436;8.490;2023-03-26T00:05:37;8.70;99.90
14031;DHT22;7090;49.436;8.490;2023-03-26T00:08:03;8.80;99.90
14031;DHT22;7090;49.436;8.490;2023-03-26T00:10:29;8.80;99.90
14031;DHT22;7090;49.436;8.490;2023-03-26T00:12:55;8.80;99.90
14031;DHT22;7090;49.436;8.490;2023-03-26T00:15:20;8.80;99.90
14031;DHT22;7090;49.436;8.490;2023-03-26T00:17:46;8.80;99.90
14031;DHT22;7090;49.436;8.490;2023-03-26T00:20:12;8.80;99.90
14031;DHT22;7090;49.436;8.490;2023-03-26T00:22:39;8.80;99.90
14031;DHT22;7090;49.436;8.490;2023-03-26T00:25:05;8.80;99.90
14031;DHT22;7090;49.436;8.490;2023-03-26T00:27:32;8.70;99.90
14031;DHT22;7090;49.436;8.490;2023-03-26T00:29:58;8.60;99.90
14031;DHT22;7090;49.436;8.490;2023-03-26T00:32:26;8.60;99.90
14031;DHT22;7090;49.436;8.490;2023-03-26T00:34:53;8.60;99.90
14031;DHT22;7090;49.436;8.490;2023-03-26T00:37:20;8.60;99.90
14031;DHT22;7090;49.436;8.490;2023-03-26T00:39:51;8.60;99.90
14031;DHT22;7090;49.436;8.490;2023-03-26T00:42:17;8.50;99.90
14031;DHT22;7090;49.436;8.490;2023-03-26T00:44:43;8.60;99.90
14031;DHT22;7090;49.436;8.490;2023-03-26T00:47:08;8.60;99.90
14031;DHT22;7090;49.436;8.490;2023-03-26T00:49:34;8.50;99.90
14031;DHT22;7090;49.436;8.490;2023-03-26T00:52:00;8.50;99.90
14031;DHT22;7090;49.436;8.490;2023-03-26T00:54:27;8.50;99.90
14031;DHT22;7090;49.436;8.490;2023-03-26T00:56:53;8.50;99.90
14031;DHT22;7090;49.436;8.490;2023-03-26T00:59:21;8.60;99.90
14031;DHT22;7090;49.436;8.490;2023-03-26T01:01:48;8.60;99.90
14031;DHT22;7090;49.436;8.490;2023-03-26T01:06:48;8.60;99.90
14031;DHT22;7090;49.436;8.490;2023-03-26T01:09:17;8.50;99.90
14031;DHT22;7090;49.436;8.490;2023-03-26T01:11:43;8.40;99.90
14031;DHT22;7090;49.436;8.490;2023-03-26T01:14:22;8.40;99.90
14031;DHT22;7090;49.436;8.490;2023-03-26T01:17:02;8.50;99.90
14031;DHT22;7090;49.436;8.490;2023-03-26T01:22:19;8.60;99.90
14031;DHT22;7090;49.436;8.490;2023-03-26T01:24:45;8.50;99.90
14031;DHT22;7090;49.436;8.490;2023-03-26T01:30:27;8.50;99.90
14031;DHT22;7090;49.436;8.490;2023-03-26T01:33:54;8.60;99.90
14031;DHT22;7090;49.436;8.490;2023-03-26T01:36:19;8.60;99.90
14031;DHT22;7090;49.436;8.490;2023-03-26T01:39:18;8.60;99.90
14031;DHT22;7090;49.436;8.490;2023-03-26T01:42:07;8.70;96.10
14031;DHT22;7090;49.436;8.490;2023-03-26T01:44:44;8.70;19.40
14031;DHT22;7090;49.436;8.490;2023-03-26T01:47:12;8.60;99.90
14031;DHT22;7090;49.436;8.490;2023-03-26T01:49:39;8.60;14.30
14031;DHT22;7090;49.436;8.490;2023-03-26T01:52:18;8.70;1.00
14031;DHT22;7090;49.436;8.490;2023-03-26T01:54:46;8.70;1.00
14031;DHT22;7090;49.436;8.490;2023-03-26T01:57:34;8.80;1.00
14031;DHT22;7090;49.436;8.490;2023-03-26T02:10:32;8.80;1.00
14031;DHT22;7090;49.436;8.490;2023-03-26T02:13:00;8.80;99.90
14031;DHT22;7090;49.436;8.490;2023-03-26T02:15:26;8.90;99.90
14031;DHT22;7090;49.436;8.490;2023-03-26T02:17:51;8.90;1.00
14031;DHT22;7090;49.436;8.490;2023-03-26T02:20:18;8.90;1.00
14031;DHT22;7090;49.436;8.490;2023-03-26T02:22:45;8.90;1.00
14031;DHT22;7090;49.436;8.490;2023-03-26T02:25:17;8.90;24.60
14031;DHT22;7090;49.436;8.490;2023-03-26T02:27:44;8.80;99.90
14031;DHT22;7090;49.436;8.490;2023-03-26T02:30:13;8.80;1.00
14031;DHT22;7090;49.436;8.490;2023-03-26T02:32:39;8.80;1.00
14031;DHT22;7090;49.436;8.490;2023-03-26T02:35:05;8.80;1.00
14031;DHT22;7090;49.436;8.490;2023-03-26T02:37:31;8.80;1.00
14031;DHT22;7090;49.436;8.490;2023-03-26T02:39:59;8.80;1.00
14031;DHT22;7090;49.436;8.490;2023-03-26T02:42:25;8.80;1.00
14031;DHT22;7090;49.436;8.490;2023-03-26T02:44:50;8.80;5.50
14031;DHT22;7090;49.436;8.490;2023-03-26T02:47:16;8.80;1.00
14031;DHT22;7090;49.436;8.490;2023-03-26T02:49:42;8.80;1.00
14031;DHT22;7090;49.436;8.490;2023-03-26T02:52:07;8.80;1.00
14031;DHT22;7090;49.436;8.490;2023-03-26T02:54:33;8.80;1.00
14031;DHT22;7090;49.436;8.490;2023-03-26T02:56:59;8.80;1.00
14031;DHT22;7090;49.436;8.490;2023-03-26T02:59:25;8.70;1.00
14031;DHT22;7090;49.436;8.490;2023-03-26T03:01:51;8.80;1.00
14031;DHT22;7090;49.436;8.490;2023-03-26T03:04:17;8.80;1.00
14031;DHT22;7090;49.436;8.490;2023-03-26T03:06:43;8.80;1.00
14031;DHT22;7090;49.436;8.490;2023-03-26T03:09:10;8.80;1.00
14031;DHT22;7090;49.436;8.490;2023-03-26T03:11:37;8.80;1.00
14031;DHT22;7090;49.436;8.490;2023-03-26T03:14:03;8.90;99.90
14031;DHT22;7090;49.436;8.490;2023-03-26T03:16:30;8.90;99.90
14031;DHT22;7090;49.436;8.490;2023-03-26T03:18:55;8.90;99.90
14031;DHT22;7090;49.436;8.490;2023-03-26T03:21:21;8.90;43.40
14031;DHT22;7090;49.436;8.490;2023-03-26T03:23:47;8.90;1.00
14031;DHT22;7090;49.436;8.490;2023-03-26T03:26:38;9.00;1.00
14031;DHT22;7090;49.436;8.490;2023-03-26T03:29:07;9.00;99.90
14031;DHT22;7090;49.436;8.490;2023-03-26T03:31:33;9.00;99.90
14031;DHT22;7090;49.436;8.490;2023-03-26T03:33:58;9.00;1.00
14031;DHT22;7090;49.436;8.490;2023-03-26T03:36:24;9.00;1.00
14031;DHT22;7090;49.436;8.490;2023-03-26T03:38:52;9.00;99.90
14031;DHT22;7090;49.436;8.490;2023-03-26T03:41:17;9.00;2.60
14031;DHT22;7090;49.436;8.490;2023-03-26T03:43:44;9.00;99.90
14031;DHT22;7090;49.436;8.490;2023-03-26T03:46:09;8.90;99.90
14031;DHT22;7090;49.436;8.490;2023-03-26T03:48:35;9.00;99.90
14031;DHT22;7090;49.436;8.490;2023-03-26T03:51:04;8.90;99.90
14031;DHT22;7090;49.436;8.490;2023-03-26T03:53:30;8.90;99.90
14031;DHT22;7090;49.436;8.490;2023-03-26T03:55:56;8.90;1.00
14031;DHT22;7090;49.436;8.490;2023-03-26T03:58:24;8.90;1.00
14031;DHT22;7090;49.436;8.490;2023-03-26T04:00:53;8.80;11.80
14031;DHT22;7090;49.436;8.490;2023-03-26T04:03:29;8.90;13.70
14031;DHT22;7090;49.436;8.490;2023-03-26T04:05:55;8.90;99.90
14031;DHT22;7090;49.436;8.490;2023-03-26T04:08:22;8.80;1.00
14031;DHT22;7090;49.436;8.490;2023-03-26T04:10:48;8.80;1.00
14031;DHT22;7090;49.436;8.490;2023-03-26T04:13:14;8.80;1.00
14031;DHT22;7090;49.436;8.490;2023-03-26T04:15:41;8.80;1.00
14031;DHT22;7090;49.436;8.490;2023-03-26T04:18:08;8.70;1.00
14031;DHT22;7090;49.436;8.490;2023-03-26T04:20:37;8.70;99.90
14031;DHT22;7090;49.436;8.490;2023-03-26T04:23:05;8.70;1.00
14031;DHT22;7090;49.436;8.490;2023-03-26T04:25:32;8.70;1.00
14031;DHT22;7090;49.436;8.490;2023-03-26T04:28:00;8.60;1.00
14031;DHT22;7090;49.436;8.490;2023-03-26T04:30:32;8.50;99.30
14031;DHT22;7090;49.436;8.490;2023-03-26T04:32:59;8.50;99.90
14031;DHT22;7090;49.436;8.490;2023-03-26T04:35:31;8.50;99.90
14031;DHT22;7090;49.436;8.490;2023-03-26T04:38:02;8.50;99.90
14031;DHT22;7090;49.436;8.490;2023-03-26T04:40:31;8.40;99.90
14031;DHT22;7090;49.436;8.490;2023-03-26T04:42:59;8.40;99.90
14031;DHT22;7090;49.436;8.490;2023-03-26T04:45:27;8.40;99.90
14031;DHT22;7090;49.436;8.490;2023-03-26T04:47:55;8.30;99.90
14031;DHT22;7090;49.436;8.490;2023-03-26T04:50:22;8.30;99.90
14031;DHT22;7090;49.436;8.490;2023-03-26T04:52:48;8.30;99.90
14031;DHT22;7090;49.436;8.490;2023-03-26T04:55:27;8.30;99.90
14031;DHT22;7090;49.436;8.490;2023-03-26T04:57:56;8.20;99.90
14031;DHT22;7090;49.436;8.490;2023-03-26T05:00:24;8.20;99.90
14031;DHT22;7090;49.436;8.490;2023-03-26T05:02:50;8.20;99.90
14031;DHT22;7090;49.436;8.490;2023-03-26T05:05:17;8.20;99.90
14031;DHT22;7090;49.436;8.490;2023-03-26T05:07:43;8.20;99.90
14031;DHT22;7090;49.436;8.490;2023-03-26T05:10:11;8.20;99.90
14031;DHT22;7090;49.436;8.490;2023-03-26T05:12:38;8.20;99.90
14031;DHT22;7090;49.436;8.490;2023-03-26T05:15:03;8.20;99.90
14031;DHT22;7090;49.436;8.490;2023-03-26T05:17:30;8.20;99.90
14031;DHT22;7090;49.436;8.490;2023-03-26T05:19:56;8.10;99.90
14031;DHT22;7090;49.436;8.490;2023-03-26T05:22:22;8.10;99.90
14031;DHT22;7090;49.436;8.490;2023-03-26T05:24:47;8.10;99.90
14031;DHT22;7090;49.436;8.490;2023-03-26T05:27:14;8.10;99.90
14031;DHT22;7090;49.436;8.490;2023-03-26T05:29:41;8.20;99.90
14031;DHT22;7090;49.436;8.490;2023-03-26T05:32:08;8.20;99.90
14031;DHT22;7090;49.436;8.490;2023-03-26T05:34:34;8.20;99.90
14031;DHT22;7090;49.436;8.490;2023-03-26T05:37:01;8.20;99.90
14031;DHT22;7090;49.436;8.490;2023-03-26T05:39:27;8.20;99.90
14031;DHT22;7090;49.436;8.490;2023-03-26T05:41:54;8.30;99.90
14031;DHT22;7090;49.436;8.490;2023-03-26T05:44:20;8.30;99.90
14031;DHT22;7090;49.436;8.490;2023-03-26T05:46:45;8.30;99.90
14031;DHT22;7090;49.436;8.490;2023-03-26T05:49:11;8.40;99.90
14031;DHT22;7090;49.436;8.490;2023-03-26T05:51:37;8.40;99.90
14031;DHT22;7090;49.436;8.490;2023-03-26T05:54:03;8.40;99.90
14031;DHT22;7090;49.436;8.490;2023-03-26T05:56:28;8.40;99.90
14031;DHT22;7090;49.436;8.490;2023-03-26T05:58:55;8.40;99.90
14031;DHT22;7090;49.436;8.490;2023-03-26T06:01:20;8.40;99.90
14031;DHT22;7090;49.436;8.490;2023-03-26T06:03:47;8.40;99.90
14031;DHT22;7090;49.436;8.490;2023-03-26T06:06:15;8.40;99.90
14031;DHT22;7090;49.436;8.490;2023-03-26T06:08:42;8.40;99.90
14031;DHT22;7090;49.436;8.490;2023-03-26T06:11:11;8.40;99.90
14031;DHT22;7090;49.436;8.490;2023-03-26T06:13:37;8.50;99.90
14031;DHT22;7090;49.436;8.490;2023-03-26T06:16:03;8.40;99.90
14031;DHT22;7090;49.436;8.490;2023-03-26T06:18:29;8.40;99.90
14031;DHT22;7090;49.436;8.490;2023-03-26T06:20:54;8.40;99.90
14031;DHT22;7090;49.436;8.490;2023-03-26T06:23:20;8.40;99.90
14031;DHT22;7090;49.436;8.490;2023-03-26T06:25:47;8.40;99.90
14031;DHT22;7090;49.436;8.490;2023-03-26T06:28:13;8.30;99.90
14031;DHT22;7090;49.436;8.490;2023-03-26T06:30:39;8.40;99.90
14031;DHT22;7090;49.436;8.490;2023-03-26T06:33:05;8.30;99.90
14031;DHT22;7090;49.436;8.490;2023-03-26T06:35:31;8.30;99.90
14031;DHT22;7090;49.436;8.490;2023-03-26T06:37:57;8.30;99.90
14031;DHT22;7090;49.436;8.490;2023-03-26T06:40:24;8.30;99.90
14031;DHT22;7090;49.436;8.490;2023-03-26T06:42:50;8.20;99.90
14031;DHT22;7090;49.436;8.490;2023-03-26T06:45:16;8.20;99.90
14031;DHT22;7090;49.436;8.490;2023-03-26T06:47:42;8.10;99.90
14031;DHT22;7090;49.436;8.490;2023-03-26T06:50:09;8.20;99.90
14031;DHT22;7090;49.436;8.490;2023-03-26T06:52:36;8.20;99.90
14031;DHT22;7090;49.436;8.490;2023-03-26T06:55:02;8.20;99.90
14031;DHT22;7090;49.436;8.490;2023-03-26T06:57:27;8.30;99.90
14031;DHT22;7090;49.436;8.490;2023-03-26T06:59:53;8.30;99.90
14031;DHT22;7090;49.436;8.490;2023-03-26T07:02:19;8.30;99.90
14031;DHT22;7090;49.436;8.490;2023-03-26T07:04:44;8.30;99.90
14031;DHT22;7090;49.436;8.490;2023-03-26T07:07:10;8.40;99.90
14031;DHT22;7090;49.436;8.490;2023-03-26T07:09:37;8.30;99.90
14031;DHT22;7090;49.436;8.490;2023-03-26T07:12:03;8.30;99.90
14031;DHT22;7090;49.436;8.490;2023-03-26T07:14:29;8.30;99.90
14031;DHT22;7090;49.436;8.490;2023-03-26T07:16:57;8.30;99.90
14031;DHT22;7090;49.436;8.490;2023-03-26T07:20:00;8.30;99.90
14031;DHT22;7090;49.436;8.490;2023-03-26T07:22:26;8.30;99.90
14031;DHT22;7090;49.436;8.490;2023-03-26T07:24:52;8.30;99.90
14031;DHT22;7090;49.436;8.490;2023-03-26T07:30:03;8.30;99.90
14031;DHT22;7090;49.436;8.490;2023-03-26T07:32:48;8.30;99.90
14031;DHT22;7090;49.436;8.490;2023-03-26T07:43:32;8.20;99.90
14031;DHT22;7090;49.436;8.490;2023-03-26T07:46:04;8.20;99.90
14031;DHT22;7090;49.436;8.490;2023-03-26T07:48:40;8.20;99.90
14031;DHT22;7090;49.436;8.490;2023-03-26T07:51:06;8.20;99.90
14031;DHT22;7090;49.436;8.490;2023-03-26T07:53:32;8.20;99.90
14031;DHT22;7090;49.436;8.490;2023-03-26T07:56:14;8.20;99.90
14031;DHT22;7090;49.436;8.490;2023-03-26T08:10:07;8.10;99.90
14031;DHT22;7090;49.436;8.490;2023-03-26T08:12:58;8.10;99.90
14031;DHT22;7090;49.436;8.490;2023-03-26T08:15:31;8.10;99.90
14031;DHT22;7090;49.436;8.490;2023-03-26T08:21:07;8.00;99.90
14031;DHT22;7090;49.436;8.490;2023-03-26T08:23:51;8.00;99.90
14031;DHT22;7090;49.436;8.490;2023-03-26T08:31:27;8.10;99.90
14031;DHT22;7090;49.436;8.490;2023-03-26T08:33:57;8.00;99.90
14031;DHT22;7090;49.436;8.490;2023-03-26T08:36:23;8.00;99.90
14031;DHT22;7090;49.436;8.490;2023-03-26T08:38:49;8.10;99.90
14031;DHT22;7090;49.436;8.490;2023-03-26T08:41:38;8.10;99.90
14031;DHT22;7090;49.436;8.490;2023-03-26T08:47:32;8.20;99.90
14031;DHT22;7090;49.436;8.490;2023-03-26T08:56:00;8.30;99.90
14031;DHT22;7090;49.436;8.490;2023-03-26T09:18:22;9.00;99.90
14031;DHT22;7090;49.436;8.490;2023-03-26T09:26:59;9.30;99.90
14031;DHT22;7090;49.436;8.490;2023-03-26T09:30:00;9.70;99.90
14031;DHT22;7090;49.436;8.490;2023-03-26T09:40:22;9.80;99.90
14031;DHT22;7090;49.436;8.490;2023-03-26T09:45:51;9.70;99.90
14031;DHT22;7090;49.436;8.490;2023-03-26T09:48:25;9.80;99.90
14031;DHT22;7090;49.436;8.490;2023-03-26T09:50:59;9.90;99.90
14031;DHT22;7090;49.436;8.490;2023-03-26T09:59:32;10.20;99.90
14031;DHT22;7090;49.436;8.490;2023-03-26T10:05:48;11.30;99.90
14031;DHT22;7090;49.436;8.490;2023-03-26T10:08:33;11.40;99.90
14031;DHT22;7090;49.436;8.490;2023-03-26T10:11:06;11.70;99.90
14031;DHT22;7090;49.436;8.490;2023-03-26T10:13:53;11.80;99.90
14031;DHT22;7090;49.436;8.490;2023-03-26T10:19:37;11.80;99.90
14031;DHT22;7090;49.436;8.490;2023-03-26T10:22:47;11.80;99.90
14031;DHT22;7090;49.436;8.490;2023-03-26T10:25:32;11.90;99.90
14031;DHT22;7090;49.436;8.490;2023-03-26T10:30:59;12.30;99.90
14031;DHT22;7090;49.436;8.490;2023-03-26T10:36:38;12.40;99.90
14031;DHT22;7090;49.436;8.490;2023-03-26T10:52:22;11.10;99.90
14031;DHT22;7090;49.436;8.490;2023-03-26T10:57:50;10.60;99.90
14031;DHT22;7090;49.436;8.490;2023-03-26T11:00:20;10.50;99.90
14031;DHT22;7090;49.436;8.490;2023-03-26T11:13:50;10.70;99.90
14031;DHT22;7090;49.436;8.490;2023-03-26T11:16:31;10.90;99.90
14031;DHT22;7090;49.436;8.490;2023-03-26T11:19:24;11.40;99.90
14031;DHT22;7090;49.436;8.490;2023-03-26T11:22:17;11.30;99.90
14031;DHT22;7090;49.436;8.490;2023-03-26T11:25:08;11.40;99.90
14031;DHT22;7090;49.436;8.490;2023-03-26T11:30:33;11.80;99.90
14031;DHT22;7090;49.436;8.490;2023-03-26T11:33:06;11.90;99.90
14031;DHT22;7090;49.436;8.490;2023-03-26T11:35:44;12.00;99.90
14031;DHT22;7090;49.436;8.490;2023-03-26T11:38:19;12.20;99.90
14031;DHT22;7090;49.436;8.490;2023-03-26T11:40:49;12.40;99.90
14031;DHT22;7090;49.436;8.490;2023-03-26T11:43:21;12.80;99.90
14031;DHT22;7090;49.436;8.490;2023-03-26T11:45:49;12.80;1.00
14031;DHT22;7090;49.436;8.490;2023-03-26T11:48:29;12.60;1.00
14031;DHT22;7090;49.436;8.490;2023-03-26T11:51:25;12.60;1.00
14031;DHT22;7090;49.436;8.490;2023-03-26T11:53:48;12.80;1.00
14031;DHT22;7090;49.436;8.490;2023-03-26T11:56:30;12.80;1.00
14031;DHT22;7090;49.436;8.490;2023-03-26T12:04:45;12.80;1.00
14031;DHT22;7090;49.436;8.490;2023-03-26T12:12:26;12.80;1.00
14031;DHT22;7090;49.436;8.490;2023-03-26T12:14:52;12.80;1.00
14031;DHT22;7090;49.436;8.490;2023-03-26T12:17:33;13.10;1.00
14031;DHT22;7090;49.436;8.490;2023-03-26T12:20:00;13.10;1.00
14031;DHT22;7090;49.436;8.490;2023-03-26T12:22:34;13.40;1.00
14031;DHT22;7090;49.436;8.490;2023-03-26T12:25:17;13.80;1.00
14031;DHT22;7090;49.436;8.490;2023-03-26T12:30:49;14.50;1.00
14031;DHT22;7090;49.436;8.490;2023-03-26T12:33:29;14.80;1.00
14031;DHT22;7090;49.436;8.490;2023-03-26T12:36:15;14.40;1.00
14031;DHT22;7090;49.436;8.490;2023-03-26T12:38:51;14.30;99.90
14031;DHT22;7090;49.436;8.490;2023-03-26T12:41:19;14.60;99.90
14031;DHT22;7090;49.436;8.490;2023-03-26T12:43:50;15.20;1.00
14031;DHT22;7090;49.436;8.490;2023-03-26T12:48:50;14.40;1.00
14031;DHT22;7090;49.436;8.490;2023-03-26T12:56:30;14.30;1.00
14031;DHT22;7090;49.436;8.490;2023-03-26T12:59:35;13.90;1.00
14031;DHT22;7090;49.436;8.490;2023-03-26T13:08:03;14.00;1.00
14031;DHT22;7090;49.436;8.490;2023-03-26T13:13:24;14.80;1.00
14031;DHT22;7090;49.436;8.490;2023-03-26T13:16:12;15.20;1.00
14031;DHT22;7090;49.436;8.490;2023-03-26T13:18:54;15.50;1.00
14031;DHT22;7090;49.436;8.490;2023-03-26T13:35:32;15.00;1.00
14031;DHT22;7090;49.436;8.490;2023-03-26T13:40:44;14.80;1.00
14031;DHT22;7090;49.436;8.490;2023-03-26T13:48:20;14.50;1.00
14031;DHT22;7090;49.436;8.490;2023-03-26T13:54:04;14.50;1.00
14031;DHT22;7090;49.436;8.490;2023-03-26T13:56:39;14.30;1.00
14031;DHT22;7090;49.436;8.490;2023-03-26T14:01:51;14.40;1.00
14031;DHT22;7090;49.436;8.490;2023-03-26T14:04:28;14.30;1.00
14031;DHT22;7090;49.436;8.490;2023-03-26T14:09:43;14.00;1.00
14031;DHT22;7090;49.436;8.490;2023-03-26T14:12:19;13.90;1.00
14031;DHT22;7090;49.436;8.490;2023-03-26T14:15:03;13.90;1.00
14031;DHT22;7090;49.436;8.490;2023-03-26T14:23:00;13.70;1.00
14031;DHT22;7090;49.436;8.490;2023-03-26T14:31:29;13.70;1.00
14031;DHT22;7090;49.436;8.490;2023-03-26T14:42:40;12.90;1.00
14031;DHT22;7090;49.436;8.490;2023-03-26T14:47:56;12.30;1.00
14031;DHT22;7090;49.436;8.490;2023-03-26T14:50:35;12.10;1.00
14031;DHT22;7090;49.436;8.490;2023-03-26T14:53:14;11.90;99.90
14031;DHT22;7090;49.436;8.490;2023-03-26T14:56:02;11.80;1.00
14031;DHT22;7090;49.436;8.490;2023-03-26T15:01:20;11.40;1.00
14031;DHT22;7090;49.436;8.490;2023-03-26T15:06:37;11.20;99.90
14031;DHT22;7090;49.436;8.490;2023-03-26T15:12:12;11.20;1.00
14031;DHT22;7090;49.436;8.490;2023-03-26T15:23:45;10.90;99.90
14031;DHT22;7090;49.436;8.490;2023-03-26T15:26:21;11.00;1.00
14031;DHT22;7090;49.436;8.490;2023-03-26T15:29:01;10.90;99.90
14031;DHT22;7090;49.436;8.490;2023-03-26T15:31:49;10.80;1.00
14031;DHT22;7090;49.436;8.490;2023-03-26T15:43:05;10.80;99.90
14031;DHT22;7090;49.436;8.490;2023-03-26T15:45:41;10.70;99.90
14031;DHT22;7090;49.436;8.490;2023-03-26T15:53:53;10.50;99.90
14031;DHT22;7090;49.436;8.490;2023-03-26T16:02:34;10.20;99.90
14031;DHT22;7090;49.436;8.490;2023-03-26T16:13:35;10.00;1.00
14031;DHT22;7090;49.436;8.490;2023-03-26T16:18:34;9.90;1.00
14031;DHT22;7090;49.436;8.490;2023-03-26T16:26:36;9.80;1.00
14031;DHT22;7090;49.436;8.490;2023-03-26T16:42:52;9.60;1.00
14031;DHT22;7090;49.436;8.490;2023-03-26T16:45:31;9.50;1.00
14031;DHT22;7090;49.436;8.490;2023-03-26T16:51:32;9.60;1.00
14031;DHT22;7090;49.436;8.490;2023-03-26T16:56:14;9.60;1.00
14031;DHT22;7090;49.436;8.490;2023-03-26T16:58:55;9.60;1.00
14031;DHT22;7090;49.436;8.490;2023-03-26T17:01:45;9.60;1.00
14031;DHT22;7090;49.436;8.490;2023-03-26T17:04:20;9.70;1.00
14031;DHT22;7090;49.436;8.490;2023-03-26T17:12:54;9.70;1.00
14031;DHT22;7090;49.436;8.490;2023-03-26T17:18:26;9.60;1.00
14031;DHT22;7090;49.436;8.490;2023-03-26T17:21:04;9.60;1.00
14031;DHT22;7090;49.436;8.490;2023-03-26T17:26:59;9.60;1.00
14031;DHT22;7090;49.436;8.490;2023-03-26T17:35:16;9.50;1.00
14031;DHT22;7090;49.436;8.490;2023-03-26T17:37:43;9.50;1.00
14031;DHT22;7090;49.436;8.490;2023-03-26T17:40:47;9.50;6.00
14031;DHT22;7090;49.436;8.490;2023-03-26T17:43:34;9.50;19.80
14031;DHT22;7090;49.436;8.490;2023-03-26T17:46:03;9.50;67.10
14031;DHT22;7090;49.436;8.490;2023-03-26T17:52:02;9.40;96.50
14031;DHT22;7090;49.436;8.490;2023-03-26T17:54:36;9.40;99.90
14031;DHT22;7090;49.436;8.490;2023-03-26T17:57:13;9.40;99.90
14031;DHT22;7090;49.436;8.490;2023-03-26T17:59:42;9.40;79.50
14031;DHT22;7090;49.436;8.490;2023-03-26T18:02:17;9.40;95.20
14031;DHT22;7090;49.436;8.490;2023-03-26T18:04:46;9.40;56.40
14031;DHT22;7090;49.436;8.490;2023-03-26T18:18:00;9.40;22.10
14031;DHT22;7090;49.436;8.490;2023-03-26T18:20:27;9.40;5.80
14031;DHT22;7090;49.436;8.490;2023-03-26T18:22:54;9.40;1.00
14031;DHT22;7090;49.436;8.490;2023-03-26T18:25:28;9.50;6.90
14031;DHT22;7090;49.436;8.490;2023-03-26T18:27:56;9.40;1.00
14031;DHT22;7090;49.436;8.490;2023-03-26T18:30:24;9.40;1.50
14031;DHT22;7090;49.436;8.490;2023-03-26T18:32:59;9.40;39.00
14031;DHT22;7090;49.436;8.490;2023-03-26T18:35:34;9.40;99.90
14031;DHT22;7090;49.436;8.490;2023-03-26T18:38:00;9.40;99.90
14031;DHT22;7090;49.436;8.490;2023-03-26T18:40:48;9.40;99.90
14031;DHT22;7090;49.436;8.490;2023-03-26T18:43:20;9.40;99.90
14031;DHT22;7090;49.436;8.490;2023-03-26T18:45:49;9.30;99.90
14031;DHT22;7090;49.436;8.490;2023-03-26T18:48:18;9.40;99.90
14031;DHT22;7090;49.436;8.490;2023-03-26T18:50:46;9.40;99.90
14031;DHT22;7090;49.436;8.490;2023-03-26T18:53:17;9.40;99.90
14031;DHT22;7090;49.436;8.490;2023-03-26T18:55:46;9.40;99.90
14031;DHT22;7090;49.436;8.490;2023-03-26T19:00:47;9.30;63.10
14031;DHT22;7090;49.436;8.490;2023-03-26T19:03:15;9.30;81.00
14031;DHT22;7090;49.436;8.490;2023-03-26T19:05:45;9.30;75.20
14031;DHT22;7090;49.436;8.490;2023-03-26T19:08:11;9.30;22.70
14031;DHT22;7090;49.436;8.490;2023-03-26T19:10:37;9.40;1.00
14031;DHT22;7090;49.436;8.490;2023-03-26T19:13:03;9.30;1.00
14031;DHT22;7090;49.436;8.490;2023-03-26T19:15:33;9.30;1.00
14031;DHT22;7090;49.436;8.490;2023-03-26T19:18:05;9.30;1.00
14031;DHT22;7090;49.436;8.490;2023-03-26T19:20:40;9.30;1.00
14031;DHT22;7090;49.436;8.490;2023-03-26T19:23:11;9.20;1.00
14031;DHT22;7090;49.436;8.490;2023-03-26T19:25:43;9.20;1.00
14031;DHT22;7090;49.436;8.490;2023-03-26T19:28:38;9.20;1.00
14031;DHT22;7090;49.436;8.490;2023-03-26T19:31:21;9.20;1.00
14031;DHT22;7090;49.436;8.490;2023-03-26T19:33:55;9.20;1.00
14031;DHT22;7090;49.436;8.490;2023-03-26T19:36:26;9.20;1.00
14031;DHT22;7090;49.436;8.490;2023-03-26T19:39:08;9.20;1.00
14031;DHT22;7090;49.436;8.490;2023-03-26T19:41:38;9.00;99.90
14031;DHT22;7090;49.436;8.490;2023-03-26T19:46:37;8.70;99.90
14031;DHT22;7090;49.436;8.490;2023-03-26T19:49:39;8.60;99.90
14031;DHT22;7090;49.436;8.490;2023-03-26T19:52:15;8.50;99.90
14031;DHT22;7090;49.436;8.490;2023-03-26T19:54:48;8.40;99.90
14031;DHT22;7090;49.436;8.490;2023-03-26T19:57:15;8.40;99.90
14031;DHT22;7090;49.436;8.490;2023-03-26T19:59:41;8.30;99.90
14031;DHT22;7090;49.436;8.490;2023-03-26T20:02:11;8.30;99.90
14031;DHT22;7090;49.436;8.490;2023-03-26T20:04:37;8.30;99.90
14031;DHT22;7090;49.436;8.490;2023-03-26T20:07:12;8.20;99.90
14031;DHT22;7090;49.436;8.490;2023-03-26T20:09:40;8.20;99.90
14031;DHT22;7090;49.436;8.490;2023-03-26T20:12:06;8.10;99.90
14031;DHT22;7090;49.436;8.490;2023-03-26T20:14:32;8.10;99.90
14031;DHT22;7090;49.436;8.490;2023-03-26T20:16:58;8.00;99.90
14031;DHT22;7090;49.436;8.490;2023-03-26T20:19:23;8.00;99.90
14031;DHT22;7090;49.436;8.490;2023-03-26T20:21:50;8.00;99.90
14031;DHT22;7090;49.436;8.490;2023-03-26T20:24:17;8.00;99.90
14031;DHT22;7090;49.436;8.490;2023-03-26T20:26:44;8.00;99.90
14031;DHT22;7090;49.436;8.490;2023-03-26T20:29:11;7.90;99.90
14031;DHT22;7090;49.436;8.490;2023-03-26T20:31:38;7.90;99.90
14031;DHT22;7090;49.436;8.490;2023-03-26T20:34:16;7.90;99.90
14031;DHT22;7090;49.436;8.490;2023-03-26T20:36:43;7.90;99.90
14031;DHT22;7090;49.436;8.490;2023-03-26T20:39:09;7.90;99.90
14031;DHT22;7090;49.436;8.490;2023-03-26T20:41:40;7.80;99.90
14031;DHT22;7090;49.436;8.490;2023-03-26T20:44:11;7.80;99.90
14031;DHT22;7090;49.436;8.490;2023-03-26T20:46:37;7.80;99.90
14031;DHT22;7090;49.436;8.490;2023-03-26T20:49:03;7.70;99.90
14031;DHT22;7090;49.436;8.490;2023-03-26T20:51:30;7.70;99.90
14031;DHT22;7090;49.436;8.490;2023-03-26T20:53:56;7.70;99.90
14031;DHT22;7090;49.436;8.490;2023-03-26T20:56:22;7.70;99.90
14031;DHT22;7090;49.436;8.490;2023-03-26T20:58:47;7.70;99.90
14031;DHT22;7090;49.436;8.490;2023-03-26T21:01:18;7.70;99.90
14031;DHT22;7090;49.436;8.490;2023-03-26T21:03:45;7.70;99.90
14031;DHT22;7090;49.436;8.490;2023-03-26T21:06:11;7.70;99.90
14031;DHT22;7090;49.436;8.490;2023-03-26T21:08:41;7.70;99.90
14031;DHT22;7090;49.436;8.490;2023-03-26T21:11:25;7.70;99.90
14031;DHT22;7090;49.436;8.490;2023-03-26T21:13:59;7.70;99.90
14031;DHT22;7090;49.436;8.490;2023-03-26T21:16:25;7.70;99.90
14031;DHT22;7090;49.436;8.490;2023-03-26T21:18:51;7.70;99.90
14031;DHT22;7090;49.436;8.490;2023-03-26T21:24:25;7.80;99.90
14031;DHT22;7090;49.436;8.490;2023-03-26T21:27:18;7.80;99.90
14031;DHT22;7090;49.436;8.490;2023-03-26T21:29:47;7.90;99.90
14031;DHT22;7090;49.436;8.490;2023-03-26T21:32:13;7.80;99.90
14031;DHT22;7090;49.436;8.490;2023-03-26T21:34:39;7.90;99.90
14031;DHT22;7090;49.436;8.490;2023-03-26T21:37:05;7.90;99.90
14031;DHT22;7090;49.436;8.490;2023-03-26T21:39:31;7.90;99.90
14031;DHT22;7090;49.436;8.490;2023-03-26T21:41:57;7.90;99.90
14031;DHT22;7090;49.436;8.490;2023-03-26T21:44:23;7.90;99.90
14031;DHT22;7090;49.436;8.490;2023-03-26T21:46:50;7.90;99.90
14031;DHT22;7090;49.436;8.490;2023-03-26T21:49:16;7.90;99.90
14031;DHT22;7090;49.436;8.490;2023-03-26T21:51:43;7.90;99.90
14031;DHT22;7090;49.436;8.490;2023-03-26T21:54:35;7.90;99.90
14031;DHT22;7090;49.436;8.490;2023-03-26T22:02:33;8.00;99.90
14031;DHT22;7090;49.436;8.490;2023-03-26T22:05:11;8.00;99.90
14031;DHT22;7090;49.436;8.490;2023-03-26T22:07:43;8.00;99.90
14031;DHT22;7090;49.436;8.490;2023-03-26T22:10:10;8.00;99.90
14031;DHT22;7090;49.436;8.490;2023-03-26T22:12:36;8.00;99.90
14031;DHT22;7090;49.436;8.490;2023-03-26T22:15:02;8.00;99.90